sensor_id;sensor_type;location;lat;lon;timestamp;temperature;humidity
75105;DHT22;64778;47.314;8.466;2022-12-18T00:02:27;-0.30;83.00
75105;DHT22;64778;47.314;8.466;2022-12-18T00:04:52;-0.20;82.90
75105;DHT22;64778;47.314;8.466;2022-12-18T00:07:18;-0.20;82.80
75105;DHT22;64778;47.314;8.466;2022-12-18T00:13:06;-0.30;82.90
75105;DHT22;64778;47.314;8.466;2022-12-18T00:15:34;-0.20;82.90
75105;DHT22;64778;47.314;8.466;2022-12-18T00:18:00;-0.30;82.60
75105;DHT22;64778;47.314;8.466;2022-12-18T00:20:26;-0.20;82.80
75105;DHT22;64778;47.314;8.466;2022-12-18T00:22:54;-0.40;82.20
75105;DHT22;64778;47.314;8.466;2022-12-18T00:25:22;-0.40;82.40
75105;DHT22;64778;47.314;8.466;2022-12-18T00:27:48;-0.50;82.40
75105;DHT22;64778;47.314;8.466;2022-12-18T00:30:16;-0.40;82.20
75105;DHT22;64778;47.314;8.466;2022-12-18T00:32:42;-0.50;81.10
75105;DHT22;64778;47.314;8.466;2022-12-18T00:38:29;-1.20;82.60
75105;DHT22;64778;47.314;8.466;2022-12-18T00:40:55;-1.30;82.80
75105;DHT22;64778;47.314;8.466;2022-12-18T00:43:23;-1.30;84.10
75105;DHT22;64778;47.314;8.466;2022-12-18T00:45:49;-1.20;84.00
75105;DHT22;64778;47.314;8.466;2022-12-18T00:48:15;-1.20;83.30
75105;DHT22;64778;47.314;8.466;2022-12-18T00:50:40;-1.10;83.70
75105;DHT22;64778;47.314;8.466;2022-12-18T00:53:06;-0.90;83.20
75105;DHT22;64778;47.314;8.466;2022-12-18T00:55:32;-0.90;82.70
75105;DHT22;64778;47.314;8.466;2022-12-18T00:57:58;-0.90;81.90
75105;DHT22;64778;47.314;8.466;2022-12-18T01:00:25;-1.00;83.10
75105;DHT22;64778;47.314;8.466;2022-12-18T01:02:51;-1.00;83.10
75105;DHT22;64778;47.314;8.466;2022-12-18T01:05:17;-1.00;81.90
75105;DHT22;64778;47.314;8.466;2022-12-18T01:07:47;-1.10;83.30
75105;DHT22;64778;47.314;8.466;2022-12-18T01:10:15;-1.20;83.40
75105;DHT22;64778;47.314;8.466;2022-12-18T01:12:44;-1.20;83.70
75105;DHT22;64778;47.314;8.466;2022-12-18T01:15:15;-1.40;83.00
75105;DHT22;64778;47.314;8.466;2022-12-18T01:17:43;-1.40;83.50
75105;DHT22;64778;47.314;8.466;2022-12-18T01:20:15;-1.50;83.70
75105;DHT22;64778;47.314;8.466;2022-12-18T01:22:41;-1.40;84.40
75105;DHT22;64778;47.314;8.466;2022-12-18T01:25:07;-1.20;84.30
75105;DHT22;64778;47.314;8.466;2022-12-18T01:27:37;-1.10;83.80
75105;DHT22;64778;47.314;8.466;2022-12-18T01:30:06;-1.00;83.90
75105;DHT22;64778;47.314;8.466;2022-12-18T01:32:34;-0.90;83.30
75105;DHT22;64778;47.314;8.466;2022-12-18T01:35:00;-0.80;82.30
75105;DHT22;64778;47.314;8.466;2022-12-18T01:37:25;-0.90;81.20
75105;DHT22;64778;47.314;8.466;2022-12-18T01:39:52;-1.00;82.10
75105;DHT22;64778;47.314;8.466;2022-12-18T01:42:19;-1.10;82.80
75105;DHT22;64778;47.314;8.466;2022-12-18T01:50:14;-1.20;83.50
75105;DHT22;64778;47.314;8.466;2022-12-18T01:52:46;-1.10;83.80
75105;DHT22;64778;47.314;8.466;2022-12-18T01:55:14;-1.10;83.60
75105;DHT22;64778;47.314;8.466;2022-12-18T01:57:42;-1.00;82.80
75105;DHT22;64778;47.314;8.466;2022-12-18T02:00:11;-1.00;83.10
75105;DHT22;64778;47.314;8.466;2022-12-18T02:02:37;-0.90;82.50
75105;DHT22;64778;47.314;8.466;2022-12-18T02:05:04;-0.80;82.90
75105;DHT22;64778;47.314;8.466;2022-12-18T02:15:48;-0.90;83.10
75105;DHT22;64778;47.314;8.466;2022-12-18T02:18:20;-0.90;81.40
75105;DHT22;64778;47.314;8.466;2022-12-18T02:26:43;-1.10;82.20
75105;DHT22;64778;47.314;8.466;2022-12-18T02:29:14;-1.20;82.10
75105;DHT22;64778;47.314;8.466;2022-12-18T02:31:47;-1.20;82.20
75105;DHT22;64778;47.314;8.466;2022-12-18T02:34:15;-1.30;82.20
75105;DHT22;64778;47.314;8.466;2022-12-18T02:36:43;-1.40;83.60
75105;DHT22;64778;47.314;8.466;2022-12-18T02:39:11;-1.30;83.00
75105;DHT22;64778;47.314;8.466;2022-12-18T02:41:41;-1.30;82.80
75105;DHT22;64778;47.314;8.466;2022-12-18T02:44:13;-1.40;82.60
75105;DHT22;64778;47.314;8.466;2022-12-18T02:46:41;-1.50;82.80
75105;DHT22;64778;47.314;8.466;2022-12-18T02:52:00;-1.80;83.90
75105;DHT22;64778;47.314;8.466;2022-12-18T03:00:07;-1.50;83.60
75105;DHT22;64778;47.314;8.466;2022-12-18T03:05:27;-1.20;82.70
75105;DHT22;64778;47.314;8.466;2022-12-18T03:08:03;-1.10;82.70
75105;DHT22;64778;47.314;8.466;2022-12-18T03:10:33;-1.10;81.90
75105;DHT22;64778;47.314;8.466;2022-12-18T03:13:06;-1.10;82.00
75105;DHT22;64778;47.314;8.466;2022-12-18T03:15:45;-1.10;81.60
75105;DHT22;64778;47.314;8.466;2022-12-18T03:18:29;-1.10;82.10
75105;DHT22;64778;47.314;8.466;2022-12-18T03:21:02;-1.00;82.10
75105;DHT22;64778;47.314;8.466;2022-12-18T03:23:36;-0.90;81.50
75105;DHT22;64778;47.314;8.466;2022-12-18T03:26:07;-0.90;80.90
75105;DHT22;64778;47.314;8.466;2022-12-18T03:28:38;-1.00;79.90
75105;DHT22;64778;47.314;8.466;2022-12-18T03:34:34;-1.20;81.80
75105;DHT22;64778;47.314;8.466;2022-12-18T03:37:01;-1.10;81.90
75105;DHT22;64778;47.314;8.466;2022-12-18T03:39:27;-1.10;82.00
75105;DHT22;64778;47.314;8.466;2022-12-18T03:55:33;-1.20;81.80
75105;DHT22;64778;47.314;8.466;2022-12-18T03:58:01;-1.20;81.50
75105;DHT22;64778;47.314;8.466;2022-12-18T04:00:30;-1.10;80.90
75105;DHT22;64778;47.314;8.466;2022-12-18T04:03:00;-1.20;81.50
75105;DHT22;64778;47.314;8.466;2022-12-18T04:05:28;-1.10;81.00
75105;DHT22;64778;47.314;8.466;2022-12-18T04:07:58;-1.10;80.70
75105;DHT22;64778;47.314;8.466;2022-12-18T04:10:26;-1.00;81.10
75105;DHT22;64778;47.314;8.466;2022-12-18T04:12:58;-1.10;80.60
75105;DHT22;64778;47.314;8.466;2022-12-18T04:15:24;-1.10;81.30
75105;DHT22;64778;47.314;8.466;2022-12-18T04:17:50;-1.10;81.00
75105;DHT22;64778;47.314;8.466;2022-12-18T04:20:18;-1.20;80.50
75105;DHT22;64778;47.314;8.466;2022-12-18T04:22:43;-1.40;81.70
75105;DHT22;64778;47.314;8.466;2022-12-18T04:25:14;-1.60;82.40
75105;DHT22;64778;47.314;8.466;2022-12-18T04:31:01;-1.40;83.10
75105;DHT22;64778;47.314;8.466;2022-12-18T04:33:27;-1.40;82.50
75105;DHT22;64778;47.314;8.466;2022-12-18T04:35:53;-1.20;82.80
75105;DHT22;64778;47.314;8.466;2022-12-18T04:38:19;-1.20;81.30
75105;DHT22;64778;47.314;8.466;2022-12-18T04:40:47;-1.10;81.00
75105;DHT22;64778;47.314;8.466;2022-12-18T04:43:15;-1.10;80.80
75105;DHT22;64778;47.314;8.466;2022-12-18T04:45:42;-1.30;82.00
75105;DHT22;64778;47.314;8.466;2022-12-18T04:48:10;-1.30;82.30
75105;DHT22;64778;47.314;8.466;2022-12-18T04:50:36;-1.20;82.70
75105;DHT22;64778;47.314;8.466;2022-12-18T04:53:01;-1.20;82.30
75105;DHT22;64778;47.314;8.466;2022-12-18T04:55:27;-1.10;81.70
75105;DHT22;64778;47.314;8.466;2022-12-18T04:57:58;-1.00;81.00
75105;DHT22;64778;47.314;8.466;2022-12-18T05:00:29;-1.00;81.10
75105;DHT22;64778;47.314;8.466;2022-12-18T05:03:01;-1.00;80.70
75105;DHT22;64778;47.314;8.466;2022-12-18T05:05:27;-0.90;80.70
75105;DHT22;64778;47.314;8.466;2022-12-18T05:07:53;-0.90;80.80
75105;DHT22;64778;47.314;8.466;2022-12-18T05:10:18;-1.00;80.80
75105;DHT22;64778;47.314;8.466;2022-12-18T05:12:46;-1.00;81.70
75105;DHT22;64778;47.314;8.466;2022-12-18T05:15:29;-1.00;80.90
75105;DHT22;64778;47.314;8.466;2022-12-18T05:17:56;-1.20;81.30
75105;DHT22;64778;47.314;8.466;2022-12-18T05:20:22;-1.30;81.90
75105;DHT22;64778;47.314;8.466;2022-12-18T05:22:48;-1.40;82.30
75105;DHT22;64778;47.314;8.466;2022-12-18T05:25:13;-1.50;82.50
75105;DHT22;64778;47.314;8.466;2022-12-18T05:27:42;-1.60;83.10
75105;DHT22;64778;47.314;8.466;2022-12-18T05:33:10;-1.70;83.90
75105;DHT22;64778;47.314;8.466;2022-12-18T05:35:36;-1.70;83.70
75105;DHT22;64778;47.314;8.466;2022-12-18T05:38:01;-1.60;83.60
75105;DHT22;64778;47.314;8.466;2022-12-18T05:40:29;-1.60;83.40
75105;DHT22;64778;47.314;8.466;2022-12-18T05:43:00;-1.50;83.70
75105;DHT22;64778;47.314;8.466;2022-12-18T05:45:29;-1.40;83.80
75105;DHT22;64778;47.314;8.466;2022-12-18T05:47:55;-1.40;82.80
75105;DHT22;64778;47.314;8.466;2022-12-18T05:50:23;-1.50;83.50
75105;DHT22;64778;47.314;8.466;2022-12-18T05:52:54;-1.40;83.70
75105;DHT22;64778;47.314;8.466;2022-12-18T05:55:21;-1.30;82.80
75105;DHT22;64778;47.314;8.466;2022-12-18T05:57:47;-1.50;83.10
75105;DHT22;64778;47.314;8.466;2022-12-18T06:00:15;-1.40;83.40
75105;DHT22;64778;47.314;8.466;2022-12-18T06:02:41;-1.30;83.00
75105;DHT22;64778;47.314;8.466;2022-12-18T06:05:07;-1.30;83.00
75105;DHT22;64778;47.314;8.466;2022-12-18T06:07:33;-1.30;83.10
75105;DHT22;64778;47.314;8.466;2022-12-18T06:09:58;-1.20;82.70
75105;DHT22;64778;47.314;8.466;2022-12-18T06:12:24;-1.20;82.60
75105;DHT22;64778;47.314;8.466;2022-12-18T06:14:49;-1.20;82.50
75105;DHT22;64778;47.314;8.466;2022-12-18T06:17:17;-1.20;82.20
75105;DHT22;64778;47.314;8.466;2022-12-18T06:19:43;-1.10;82.20
75105;DHT22;64778;47.314;8.466;2022-12-18T06:25:33;-1.20;82.80
75105;DHT22;64778;47.314;8.466;2022-12-18T06:27:59;-1.10;82.30
75105;DHT22;64778;47.314;8.466;2022-12-18T06:30:27;-1.00;82.30
75105;DHT22;64778;47.314;8.466;2022-12-18T06:32:55;-1.00;82.20
75105;DHT22;64778;47.314;8.466;2022-12-18T06:35:23;-0.90;82.20
75105;DHT22;64778;47.314;8.466;2022-12-18T06:37:51;-0.80;82.20
75105;DHT22;64778;47.314;8.466;2022-12-18T06:40:24;-0.80;81.30
75105;DHT22;64778;47.314;8.466;2022-12-18T06:42:49;-0.90;81.40
75105;DHT22;64778;47.314;8.466;2022-12-18T06:45:20;-0.90;81.70
75105;DHT22;64778;47.314;8.466;2022-12-18T06:47:48;-0.90;81.20
75105;DHT22;64778;47.314;8.466;2022-12-18T06:50:13;-0.80;81.20
75105;DHT22;64778;47.314;8.466;2022-12-18T06:52:41;-0.80;81.80
75105;DHT22;64778;47.314;8.466;2022-12-18T06:55:10;-0.90;82.20
75105;DHT22;64778;47.314;8.466;2022-12-18T06:57:39;-0.90;81.00
75105;DHT22;64778;47.314;8.466;2022-12-18T07:00:07;-1.00;82.00
75105;DHT22;64778;47.314;8.466;2022-12-18T07:02:35;-1.00;82.30
75105;DHT22;64778;47.314;8.466;2022-12-18T07:05:03;-1.00;82.70
75105;DHT22;64778;47.314;8.466;2022-12-18T07:07:33;-0.90;82.20
75105;DHT22;64778;47.314;8.466;2022-12-18T07:09:59;-0.90;82.00
75105;DHT22;64778;47.314;8.466;2022-12-18T07:12:27;-0.80;82.10
75105;DHT22;64778;47.314;8.466;2022-12-18T07:14:53;-0.90;82.20
75105;DHT22;64778;47.314;8.466;2022-12-18T07:17:21;-0.90;82.60
75105;DHT22;64778;47.314;8.466;2022-12-18T07:19:48;-1.00;82.70
75105;DHT22;64778;47.314;8.466;2022-12-18T07:22:17;-1.10;83.20
75105;DHT22;64778;47.314;8.466;2022-12-18T07:24:45;-1.10;83.50
75105;DHT22;64778;47.314;8.466;2022-12-18T07:27:10;-1.10;83.80
75105;DHT22;64778;47.314;8.466;2022-12-18T07:29:36;-1.30;84.90
75105;DHT22;64778;47.314;8.466;2022-12-18T07:32:01;-1.30;84.60
75105;DHT22;64778;47.314;8.466;2022-12-18T07:34:27;-1.30;85.00
75105;DHT22;64778;47.314;8.466;2022-12-18T07:36:53;-1.30;85.10
75105;DHT22;64778;47.314;8.466;2022-12-18T07:42:40;-1.10;84.50
75105;DHT22;64778;47.314;8.466;2022-12-18T07:45:06;-1.10;84.00
75105;DHT22;64778;47.314;8.466;2022-12-18T07:47:34;-1.00;83.40
75105;DHT22;64778;47.314;8.466;2022-12-18T07:50:02;-1.20;83.80
75105;DHT22;64778;47.314;8.466;2022-12-18T07:52:30;-1.20;83.80
75105;DHT22;64778;47.314;8.466;2022-12-18T07:54:58;-1.10;83.50
75105;DHT22;64778;47.314;8.466;2022-12-18T07:57:23;-1.20;83.40
75105;DHT22;64778;47.314;8.466;2022-12-18T08:02:52;-1.30;83.60
75105;DHT22;64778;47.314;8.466;2022-12-18T08:05:18;-1.20;84.00
75105;DHT22;64778;47.314;8.466;2022-12-18T08:07:44;-1.10;84.10
75105;DHT22;64778;47.314;8.466;2022-12-18T08:10:12;-0.90;83.60
75105;DHT22;64778;47.314;8.466;2022-12-18T08:12:38;-0.70;82.60
75105;DHT22;64778;47.314;8.466;2022-12-18T08:15:04;-0.60;82.50
75105;DHT22;64778;47.314;8.466;2022-12-18T08:17:29;-0.50;81.90
75105;DHT22;64778;47.314;8.466;2022-12-18T08:19:58;-0.50;82.10
75105;DHT22;64778;47.314;8.466;2022-12-18T08:22:26;-0.50;82.20
75105;DHT22;64778;47.314;8.466;2022-12-18T08:24:53;-0.50;82.00
75105;DHT22;64778;47.314;8.466;2022-12-18T08:27:19;-0.60;82.50
75105;DHT22;64778;47.314;8.466;2022-12-18T08:29:47;-0.50;82.20
75105;DHT22;64778;47.314;8.466;2022-12-18T08:32:15;-0.70;82.50
75105;DHT22;64778;47.314;8.466;2022-12-18T08:34:43;-0.70;83.00
75105;DHT22;64778;47.314;8.466;2022-12-18T08:37:09;-0.70;82.30
75105;DHT22;64778;47.314;8.466;2022-12-18T08:39:37;-1.10;83.60
75105;DHT22;64778;47.314;8.466;2022-12-18T08:42:05;-1.20;83.90
75105;DHT22;64778;47.314;8.466;2022-12-18T08:44:51;-1.30;84.20
75105;DHT22;64778;47.314;8.466;2022-12-18T08:47:17;-1.10;84.50
75105;DHT22;64778;47.314;8.466;2022-12-18T08:49:45;-1.00;83.80
75105;DHT22;64778;47.314;8.466;2022-12-18T08:55:33;-0.70;83.20
75105;DHT22;64778;47.314;8.466;2022-12-18T08:57:58;-0.70;82.60
75105;DHT22;64778;47.314;8.466;2022-12-18T09:00:24;-0.80;82.20
75105;DHT22;64778;47.314;8.466;2022-12-18T09:02:54;-1.00;83.30
75105;DHT22;64778;47.314;8.466;2022-12-18T09:05:20;-0.90;83.00
75105;DHT22;64778;47.314;8.466;2022-12-18T09:07:48;-0.80;82.60
75105;DHT22;64778;47.314;8.466;2022-12-18T09:10:13;-1.00;83.60
75105;DHT22;64778;47.314;8.466;2022-12-18T09:12:39;-0.90;84.50
75105;DHT22;64778;47.314;8.466;2022-12-18T09:15:05;-0.60;83.00
75105;DHT22;64778;47.314;8.466;2022-12-18T09:20:52;-0.10;81.70
75105;DHT22;64778;47.314;8.466;2022-12-18T09:23:18;0.20;80.60
75105;DHT22;64778;47.314;8.466;2022-12-18T09:25:44;0.40;80.20
75105;DHT22;64778;47.314;8.466;2022-12-18T09:28:13;0.50;78.80
75105;DHT22;64778;47.314;8.466;2022-12-18T09:30:41;0.30;78.00
75105;DHT22;64778;47.314;8.466;2022-12-18T09:33:12;0.10;78.90
75105;DHT22;64778;47.314;8.466;2022-12-18T09:35:41;0.20;79.30
75105;DHT22;64778;47.314;8.466;2022-12-18T09:38:18;0.30;79.30
75105;DHT22;64778;47.314;8.466;2022-12-18T09:40:51;0.50;78.70
75105;DHT22;64778;47.314;8.466;2022-12-18T09:43:21;0.40;78.00
75105;DHT22;64778;47.314;8.466;2022-12-18T09:45:53;0.60;78.30
75105;DHT22;64778;47.314;8.466;2022-12-18T09:48:34;0.80;77.10
75105;DHT22;64778;47.314;8.466;2022-12-18T09:53:38;0.70;76.40
75105;DHT22;64778;47.314;8.466;2022-12-18T09:56:12;0.80;77.90
75105;DHT22;64778;47.314;8.466;2022-12-18T09:58:54;0.90;77.50
75105;DHT22;64778;47.314;8.466;2022-12-18T10:01:22;0.90;76.90
75105;DHT22;64778;47.314;8.466;2022-12-18T10:03:49;0.60;76.30
75105;DHT22;64778;47.314;8.466;2022-12-18T10:13:09;1.10;75.80
75105;DHT22;64778;47.314;8.466;2022-12-18T10:16:01;1.30;74.20
75105;DHT22;64778;47.314;8.466;2022-12-18T10:19:18;1.30;73.90
75105;DHT22;64778;47.314;8.466;2022-12-18T10:27:17;0.30;77.10
75105;DHT22;64778;47.314;8.466;2022-12-18T10:29:44;0.10;78.60
75105;DHT22;64778;47.314;8.466;2022-12-18T10:32:29;0.10;79.40
75105;DHT22;64778;47.314;8.466;2022-12-18T10:34:57;0.00;78.20
75105;DHT22;64778;47.314;8.466;2022-12-18T10:37:27;-0.30;79.10
75105;DHT22;64778;47.314;8.466;2022-12-18T10:40:12;0.10;78.90
75105;DHT22;64778;47.314;8.466;2022-12-18T10:42:40;0.60;78.40
75105;DHT22;64778;47.314;8.466;2022-12-18T10:45:13;0.70;75.50
75105;DHT22;64778;47.314;8.466;2022-12-18T10:47:46;0.60;75.90
75105;DHT22;64778;47.314;8.466;2022-12-18T10:50:31;0.60;77.00
75105;DHT22;64778;47.314;8.466;2022-12-18T10:52:59;0.80;76.10
75105;DHT22;64778;47.314;8.466;2022-12-18T10:55:38;1.00;75.80
75105;DHT22;64778;47.314;8.466;2022-12-18T10:58:37;1.10;73.70
75105;DHT22;64778;47.314;8.466;2022-12-18T11:06:23;1.30;73.90
75105;DHT22;64778;47.314;8.466;2022-12-18T11:09:03;1.30;74.10
75105;DHT22;64778;47.314;8.466;2022-12-18T11:11:30;1.10;73.90
75105;DHT22;64778;47.314;8.466;2022-12-18T11:14:04;1.20;74.90
75105;DHT22;64778;47.314;8.466;2022-12-18T11:16:44;1.40;73.90
75105;DHT22;64778;47.314;8.466;2022-12-18T11:19:34;1.70;72.30
75105;DHT22;64778;47.314;8.466;2022-12-18T11:22:33;1.00;73.80
75105;DHT22;64778;47.314;8.466;2022-12-18T11:25:41;0.40;76.90
75105;DHT22;64778;47.314;8.466;2022-12-18T11:27:53;0.40;76.50
75105;DHT22;64778;47.314;8.466;2022-12-18T11:30:34;0.20;77.90
75105;DHT22;64778;47.314;8.466;2022-12-18T11:35:40;1.10;75.80
75105;DHT22;64778;47.314;8.466;2022-12-18T11:38:24;1.30;74.50
75105;DHT22;64778;47.314;8.466;2022-12-18T11:43:45;1.60;74.30
75105;DHT22;64778;47.314;8.466;2022-12-18T11:46:30;1.60;72.40
75105;DHT22;64778;47.314;8.466;2022-12-18T11:49:21;1.70;73.40
75105;DHT22;64778;47.314;8.466;2022-12-18T11:58:14;1.20;74.40
75105;DHT22;64778;47.314;8.466;2022-12-18T12:09:11;0.50;76.70
75105;DHT22;64778;47.314;8.466;2022-12-18T12:39:37;0.10;77.90
75105;DHT22;64778;47.314;8.466;2022-12-18T12:42:06;0.20;78.60
75105;DHT22;64778;47.314;8.466;2022-12-18T12:44:59;0.50;78.80
75105;DHT22;64778;47.314;8.466;2022-12-18T12:47:31;0.70;79.80
75105;DHT22;64778;47.314;8.466;2022-12-18T12:53:32;1.30;75.20
75105;DHT22;64778;47.314;8.466;2022-12-18T12:56:00;1.30;74.90
75105;DHT22;64778;47.314;8.466;2022-12-18T13:01:23;1.30;75.60
75105;DHT22;64778;47.314;8.466;2022-12-18T13:06:37;1.60;74.50
75105;DHT22;64778;47.314;8.466;2022-12-18T13:09:05;1.40;74.10
75105;DHT22;64778;47.314;8.466;2022-12-18T13:11:45;1.10;75.70
75105;DHT22;64778;47.314;8.466;2022-12-18T13:19:42;0.80;77.40
75105;DHT22;64778;47.314;8.466;2022-12-18T13:22:21;0.20;78.20
75105;DHT22;64778;47.314;8.466;2022-12-18T13:24:52;0.30;80.00
75105;DHT22;64778;47.314;8.466;2022-12-18T13:52:22;0.90;78.40
75105;DHT22;64778;47.314;8.466;2022-12-18T13:54:57;0.80;77.40
75105;DHT22;64778;47.314;8.466;2022-12-18T13:57:30;0.80;77.50
75105;DHT22;64778;47.314;8.466;2022-12-18T14:00:14;0.80;77.50
75105;DHT22;64778;47.314;8.466;2022-12-18T14:02:45;0.70;77.50
75105;DHT22;64778;47.314;8.466;2022-12-18T14:05:40;0.60;78.90
75105;DHT22;64778;47.314;8.466;2022-12-18T14:08:16;0.80;78.50
75105;DHT22;64778;47.314;8.466;2022-12-18T14:10:46;1.00;78.50
75105;DHT22;64778;47.314;8.466;2022-12-18T14:13:26;1.00;78.70
75105;DHT22;64778;47.314;8.466;2022-12-18T14:15:55;0.90;77.70
75105;DHT22;64778;47.314;8.466;2022-12-18T14:20:56;0.50;79.40
75105;DHT22;64778;47.314;8.466;2022-12-18T14:26:01;0.50;79.30
75105;DHT22;64778;47.314;8.466;2022-12-18T14:28:27;0.50;79.20
75105;DHT22;64778;47.314;8.466;2022-12-18T14:30:53;0.00;80.80
75105;DHT22;64778;47.314;8.466;2022-12-18T14:36:52;-0.10;82.20
75105;DHT22;64778;47.314;8.466;2022-12-18T14:39:23;0.00;82.20
75105;DHT22;64778;47.314;8.466;2022-12-18T14:41:51;0.10;81.10
75105;DHT22;64778;47.314;8.466;2022-12-18T14:44:19;0.10;81.20
75105;DHT22;64778;47.314;8.466;2022-12-18T14:46:50;0.10;81.50
75105;DHT22;64778;47.314;8.466;2022-12-18T14:49:32;0.10;81.30
75105;DHT22;64778;47.314;8.466;2022-12-18T14:52:03;0.10;81.40
75105;DHT22;64778;47.314;8.466;2022-12-18T14:54:31;-0.10;81.60
75105;DHT22;64778;47.314;8.466;2022-12-18T14:57:28;-0.10;82.20
75105;DHT22;64778;47.314;8.466;2022-12-18T15:00:15;-0.70;83.70
75105;DHT22;64778;47.314;8.466;2022-12-18T15:02:41;-0.70;84.70
75105;DHT22;64778;47.314;8.466;2022-12-18T15:07:44;-0.30;83.10
75105;DHT22;64778;47.314;8.466;2022-12-18T15:10:15;-0.10;82.70
75105;DHT22;64778;47.314;8.466;2022-12-18T15:12:45;-0.30;82.50
75105;DHT22;64778;47.314;8.466;2022-12-18T15:23:04;-0.50;83.90
75105;DHT22;64778;47.314;8.466;2022-12-18T15:25:39;-0.50;84.10
75105;DHT22;64778;47.314;8.466;2022-12-18T15:28:18;-0.50;83.40
75105;DHT22;64778;47.314;8.466;2022-12-18T15:33:41;-0.60;84.20
75105;DHT22;64778;47.314;8.466;2022-12-18T15:36:14;-0.70;84.50
75105;DHT22;64778;47.314;8.466;2022-12-18T15:38:40;-0.90;85.20
75105;DHT22;64778;47.314;8.466;2022-12-18T15:41:05;-0.80;85.20
75105;DHT22;64778;47.314;8.466;2022-12-18T15:43:31;-0.80;85.00
75105;DHT22;64778;47.314;8.466;2022-12-18T15:48:27;-0.70;84.80
75105;DHT22;64778;47.314;8.466;2022-12-18T15:50:54;-0.90;85.50
75105;DHT22;64778;47.314;8.466;2022-12-18T15:53:22;-0.90;85.60
75105;DHT22;64778;47.314;8.466;2022-12-18T15:55:51;-0.90;85.70
75105;DHT22;64778;47.314;8.466;2022-12-18T15:58:35;-0.80;85.50
75105;DHT22;64778;47.314;8.466;2022-12-18T16:01:03;-0.70;85.00
75105;DHT22;64778;47.314;8.466;2022-12-18T16:03:34;-0.80;85.40
75105;DHT22;64778;47.314;8.466;2022-12-18T16:06:00;-1.00;85.80
75105;DHT22;64778;47.314;8.466;2022-12-18T16:08:30;-1.10;86.50
75105;DHT22;64778;47.314;8.466;2022-12-18T16:11:00;-1.00;86.00
75105;DHT22;64778;47.314;8.466;2022-12-18T16:13:26;-1.00;86.30
75105;DHT22;64778;47.314;8.466;2022-12-18T16:15:52;-0.90;86.10
75105;DHT22;64778;47.314;8.466;2022-12-18T16:18:20;-0.90;86.10
75105;DHT22;64778;47.314;8.466;2022-12-18T16:20:46;-0.80;85.70
75105;DHT22;64778;47.314;8.466;2022-12-18T16:23:11;-0.70;85.50
75105;DHT22;64778;47.314;8.466;2022-12-18T16:25:37;-0.80;85.70
75105;DHT22;64778;47.314;8.466;2022-12-18T16:28:05;-1.00;86.40
75105;DHT22;64778;47.314;8.466;2022-12-18T16:30:31;-1.00;86.90
75105;DHT22;64778;47.314;8.466;2022-12-18T16:33:00;-1.10;87.00
75105;DHT22;64778;47.314;8.466;2022-12-18T16:35:26;-1.00;87.50
75105;DHT22;64778;47.314;8.466;2022-12-18T16:37:52;-1.00;86.60
75105;DHT22;64778;47.314;8.466;2022-12-18T16:40:18;-0.90;86.50
75105;DHT22;64778;47.314;8.466;2022-12-18T16:42:44;-0.80;86.30
75105;DHT22;64778;47.314;8.466;2022-12-18T16:45:16;-0.80;85.90
75105;DHT22;64778;47.314;8.466;2022-12-18T16:47:44;-0.70;86.00
75105;DHT22;64778;47.314;8.466;2022-12-18T16:50:11;-0.70;85.90
75105;DHT22;64778;47.314;8.466;2022-12-18T16:52:39;-0.70;87.00
75105;DHT22;64778;47.314;8.466;2022-12-18T16:55:05;-0.60;86.10
75105;DHT22;64778;47.314;8.466;2022-12-18T16:57:31;-0.50;85.60
75105;DHT22;64778;47.314;8.466;2022-12-18T16:59:57;-0.60;85.30
75105;DHT22;64778;47.314;8.466;2022-12-18T17:02:26;-0.50;85.40
75105;DHT22;64778;47.314;8.466;2022-12-18T17:04:53;-0.40;85.10
75105;DHT22;64778;47.314;8.466;2022-12-18T17:07:19;-0.30;84.70
75105;DHT22;64778;47.314;8.466;2022-12-18T17:09:47;-0.30;84.00
75105;DHT22;64778;47.314;8.466;2022-12-18T17:12:16;-0.30;84.20
75105;DHT22;64778;47.314;8.466;2022-12-18T17:14:46;-0.30;84.00
75105;DHT22;64778;47.314;8.466;2022-12-18T17:17:14;-0.30;84.20
75105;DHT22;64778;47.314;8.466;2022-12-18T17:19:40;-0.40;84.40
75105;DHT22;64778;47.314;8.466;2022-12-18T17:22:06;-0.90;86.00
75105;DHT22;64778;47.314;8.466;2022-12-18T17:24:34;-1.10;87.20
75105;DHT22;64778;47.314;8.466;2022-12-18T17:27:00;-1.00;87.00
75105;DHT22;64778;47.314;8.466;2022-12-18T17:29:28;-0.90;86.70
75105;DHT22;64778;47.314;8.466;2022-12-18T17:31:53;-1.00;86.80
75105;DHT22;64778;47.314;8.466;2022-12-18T17:34:19;-0.90;86.80
75105;DHT22;64778;47.314;8.466;2022-12-18T17:36:46;-1.10;87.70
75105;DHT22;64778;47.314;8.466;2022-12-18T17:39:18;-1.10;87.70
75105;DHT22;64778;47.314;8.466;2022-12-18T17:41:47;-1.00;87.70
75105;DHT22;64778;47.314;8.466;2022-12-18T17:44:16;-0.80;87.40
75105;DHT22;64778;47.314;8.466;2022-12-18T17:46:44;-0.80;86.90
75105;DHT22;64778;47.314;8.466;2022-12-18T17:49:13;-0.80;86.20
75105;DHT22;64778;47.314;8.466;2022-12-18T17:51:41;-0.70;86.30
75105;DHT22;64778;47.314;8.466;2022-12-18T17:54:07;-0.80;86.40
75105;DHT22;64778;47.314;8.466;2022-12-18T17:56:33;-0.80;87.20
75105;DHT22;64778;47.314;8.466;2022-12-18T17:59:01;-0.70;86.70
75105;DHT22;64778;47.314;8.466;2022-12-18T18:01:27;-0.70;86.20
75105;DHT22;64778;47.314;8.466;2022-12-18T18:03:52;-0.70;86.10
75105;DHT22;64778;47.314;8.466;2022-12-18T18:06:21;-0.70;86.30
75105;DHT22;64778;47.314;8.466;2022-12-18T18:08:49;-0.70;86.30
75105;DHT22;64778;47.314;8.466;2022-12-18T18:11:17;-0.70;86.10
75105;DHT22;64778;47.314;8.466;2022-12-18T18:14:02;-0.80;86.90
75105;DHT22;64778;47.314;8.466;2022-12-18T18:16:43;-0.80;86.70
75105;DHT22;64778;47.314;8.466;2022-12-18T18:19:15;-0.90;87.50
75105;DHT22;64778;47.314;8.466;2022-12-18T18:21:45;-0.90;87.30
75105;DHT22;64778;47.314;8.466;2022-12-18T18:24:13;-0.90;87.10
75105;DHT22;64778;47.314;8.466;2022-12-18T18:30:03;-0.90;87.80
75105;DHT22;64778;47.314;8.466;2022-12-18T18:32:31;-0.80;87.30
75105;DHT22;64778;47.314;8.466;2022-12-18T18:34:57;-0.90;87.50
75105;DHT22;64778;47.314;8.466;2022-12-18T18:37:23;-1.00;87.70
75105;DHT22;64778;47.314;8.466;2022-12-18T18:39:48;-1.00;87.40
75105;DHT22;64778;47.314;8.466;2022-12-18T18:42:14;-1.10;87.80
75105;DHT22;64778;47.314;8.466;2022-12-18T18:44:39;-1.00;88.00
75105;DHT22;64778;47.314;8.466;2022-12-18T18:47:08;-1.10;87.50
75105;DHT22;64778;47.314;8.466;2022-12-18T18:49:33;-1.10;87.90
75105;DHT22;64778;47.314;8.466;2022-12-18T18:51:59;-1.00;87.60
75105;DHT22;64778;47.314;8.466;2022-12-18T18:54:25;-1.10;87.70
75105;DHT22;64778;47.314;8.466;2022-12-18T18:56:51;-1.10;87.60
75105;DHT22;64778;47.314;8.466;2022-12-18T18:59:19;-1.10;87.70
75105;DHT22;64778;47.314;8.466;2022-12-18T19:01:45;-1.10;87.40
75105;DHT22;64778;47.314;8.466;2022-12-18T19:04:10;-1.10;87.50
75105;DHT22;64778;47.314;8.466;2022-12-18T19:06:36;-1.10;87.70
75105;DHT22;64778;47.314;8.466;2022-12-18T19:09:04;-1.10;87.70
75105;DHT22;64778;47.314;8.466;2022-12-18T19:11:32;-1.10;87.50
75105;DHT22;64778;47.314;8.466;2022-12-18T19:14:17;-1.00;87.50
75105;DHT22;64778;47.314;8.466;2022-12-18T19:17:10;-0.90;86.90
75105;DHT22;64778;47.314;8.466;2022-12-18T19:19:36;-1.10;87.30
75105;DHT22;64778;47.314;8.466;2022-12-18T19:22:04;-1.20;87.90
75105;DHT22;64778;47.314;8.466;2022-12-18T19:24:29;-1.20;88.20